首页
METAR-TAF:

METAR-TAF

机场 :

科斯雷國際機場

科斯雷, 密克罗尼西亚群岛

纬度: 05-21N, 经度: 162-57E, 海拔: 3米

当前天气观测

该预报发布于28分钟前的01:50 UTC
风速10节,风向
温度 31°C
湿度 71%
气压 1008 hPa
能見度: 16.1公里
多云层高于2000英尺, 积雨云.
多云层高于13000英尺
阴天层高于30000英尺

METAR: PTSA 210150Z 18010KT 10SM BKN020CB BKN130 OVC300 31/25 A2976 RMK CB SW-N MOV N TCU S-W AND N

时间: 13:18 (02:18 UTC)

预报

该预报发布于2小时和56分钟前的23:22 UTC
预报有效从21日的 00点(UTC)到 21日的 24点(UTC)
风速9节,风向
能見度: 10公里
散云层高于1400英尺
散云层高于4000英尺
多云层高于13000英尺
附近有阵雨
短暂存在
从 21日的 02点(UTC)到 21日的 06点(UTC)
能見度: 8.0公里
散云层高于1200英尺
多云层高于2500英尺
小阵雨

TAF: PTSA 202322Z 2100/2124 19009KT P6SM VCSH SCT014 SCT040 BKN130 TEMPO 2102/2106 5SM -SHRA SCT012 BKN025

超过4000个机场的气象观测和天气预报(METAR&TAF报告)。

可查询的气象台以黄色和红色小点在地图上表示。

将鼠标移到小点上方,可查看气象台名称。

然后点击查看天气观测和预报。

如需切换地图:点击带黑十字的绿色按钮放大地图;点击带横线的绿色按钮缩小地图;或者点击绿色箭头查看邻近地区的地图。


METAR-TAF: